x

Halibut Bank (46146) Wave Buoy

5:00 - Thu 21st Aug 2014 All times are PDT. -7 hours from GMT.

  • Sig Wave height 1.0ft
  • Peak Period 4s
  • Wind
    11mph, 13mph gusts
  • Sea Temp 64°f
  • Luft Temp 62°f
  • Sea Pressure 1015.5mb
  • Halibut Bank
  • Halibut Bank

More Historic Weather Station data

Upgrade to MSW Pro to gain access to the past 30 days of data for over 8000 Wavebouys and Weather Stations around the globe.

Join Pro

Comparision Forecast

View Surf forecast
   
Do 08/21 5:00 1ft 4s 11 13 mph 1015.5mb 64f 62f
4:00 0.7ft 3s 7
mph
1015.3mb 64f 63f
3:00 0.7ft 3s  -  2 mph 1015.3mb 64f 63f
2:00 0.7ft 2s 4 7 mph 1015.3mb 64f 63f
1:00 0.7ft 3s 4
mph
1015.3mb 64f 63f
12:00 0.7ft 3s 7 9 mph 1014.9mb 65f 64f
Mi 08/20 11:00 0.7ft 3s 9
mph
1014.5mb 64f 64f
10:00 0.7ft 3s 9
mph
1014.3mb 64f 64f
9:00 0.3ft 3s 9
mph
1014mb 65f 64f
8:00 0.3ft 3s 7 9 mph 1013.5mb 65f 64f
7:00 0.7ft 4s 4
mph
1013.5mb 65f 64f
6:00 0.7ft 7s 7
mph
1013.6mb 65f 64f
5:00 0.7ft 2s 7 9 mph 1013.8mb 65f 64f
4:00 0.3ft 3s 9 11 mph 1014.1mb 66f 64f
3:00 0.3ft 4s 9 11 mph 1014.1mb 66f 64f
2:00 0.7ft 6s 7 9 mph 1014.2mb 67f 64f
1:00 0.7ft 4s 4
mph
1014.3mb 69f 64f
12:00 0.7ft 3s 2 4 mph 1014.3mb 68f 63f
11:00 0.7ft 3s 2 4 mph 1014.4mb 67f 62f
10:00 0.7ft 3s 2 4 mph 1013.9mb 66f 62f
9:00 0.7ft 3s 2
mph
1013.5mb 64f 62f
8:00 1ft 3s 4 7 mph 1013mb 64f 61f
7:00 1ft 3s 4
mph
1012.3mb 62f 61f
6:00 1.3ft 4s 7 9 mph 1011.6mb 62f 60f
5:00 1.6ft 4s 16 18 mph 1010.5mb 62f 61f
4:00 2ft 4s 16 20 mph 1009.9mb 62f 62f
3:00 2ft 4s 16 18 mph 1009.6mb 63f 62f
2:00 1.3ft 4s 20 22 mph 1009mb 63f 63f
1:00 1.3ft 3s 18 20 mph 1008.5mb 64f 64f
12:00 1ft 3s 13
mph
1008.4mb 64f 65f
Di 08/19 11:00 0.3ft 2s 13 18 mph 1008.1mb 65f 65f
10:00 0.3ft 4s 11 13 mph 1007.9mb 65f 66f
9:00 0.3ft 6s 2
mph
1008.1mb 65f 65f
8:00 0.3ft 6s  -  2 mph 1008mb 65f 66f
7:00 0.3ft 4s  -  2 mph 1007.8mb 66f 68f
6:00 0.3ft 2s  -  2 mph 1007.8mb 67f 68f
5:00 0.7ft 3s 2 4 mph 1008.4mb 67f 67f
4:00 0.7ft 3s 2
mph
1008.7mb 67f 67f
3:00 0.7ft 3s 2
mph
1008.8mb 66f 66f
2:00 1ft 4s 4
mph
1009.4mb 65f 65f
1:00 1.3ft 3s 7 9 mph 1009.6mb 64f 64f
12:00 1.3ft 4s 9 11 mph 1009.6mb 64f 64f
11:00 1.3ft 4s 11 13 mph 1009.7mb 63f 63f
10:00 1.6ft 4s 16 18 mph 1009.7mb 63f 63f
9:00 1.6ft 4s 11 13 mph 1009.7mb 63f 63f
8:00 2ft 4s 11 13 mph 1009.7mb 63f 63f
7:00 2ft 4s 13 16 mph 1009.3mb 63f 64f
6:00 2.5ft 4s 16 18 mph 1008.9mb 63f 64f
5:00 2.5ft 4s 20 22 mph 1008.8mb 64f 65f
4:00 2.5ft 4s 22 27 mph 1008.5mb 64f 65f
3:00 2.5ft 4s 18 22 mph 1008.9mb 64f 65f
2:00 2.5ft 4s 22 27 mph 1008.7mb 65f 66f
1:00 2ft 4s 22 27 mph 1008.5mb 65f 67f
12:00 1.6ft 4s 18 20 mph 1009.1mb 66f 68f
Mo 08/18 11:00 1.3ft 3s 18 22 mph 1009.1mb 67f 69f
10:00 1.3ft 3s 18 22 mph 1009.6mb 67f 69f
9:00 1ft 3s 18 22 mph 1009.8mb 68f 69f
8:00 1ft 3s 11 13 mph 1010.2mb 68f 69f
7:00 1.3ft 3s 16 18 mph 1010.6mb 69f 68f
6:00 1.3ft 3s 18 20 mph 1011mb 69f 68f
5:00 1ft 3s 16 20 mph 1011.9mb 69f 68f
4:00 1ft 3s 9 11 mph 1012.8mb 68f 67f
3:00 1.3ft 4s 9 11 mph 1013.2mb 68f 67f
2:00 1.6ft 4s 13 16 mph 1013.9mb 67f 66f
1:00 2ft 4s 16 18 mph 1014.4mb 66f 65f
12:00 1.6ft 4s 13 16 mph 1014.9mb 66f 65f
11:00 1.3ft 3s 16 18 mph 1015.5mb 66f 65f
10:00 1.3ft 4s 13 18 mph 1015.9mb 66f 65f
9:00 1.3ft 4s 13 16 mph 1016.2mb 66f 64f
8:00 1.6ft 4s 13 16 mph 1016.6mb 66f 64f
7:00 1.6ft 4s 16 18 mph 1016.7mb 67f 65f
6:00 2ft 4s 18 20 mph 1016.7mb 68f 65f
5:00 1.6ft 3s 18 20 mph 1016.9mb 69f 66f
4:00 1.3ft 3s 13 16 mph 1017mb 69f 67f
3:00 0.7ft 3s 9
mph
1017.1mb 70f 67f
2:00 0.3ft 2s 9 11 mph 1017mb 70f 68f
1:00 0.3ft 6s 9 11 mph 1016.9mb 70f 68f
12:00 0.3ft 3s 4 7 mph 1016.9mb 70f 69f
So 08/17 11:00 0.7ft 3s 4 7 mph 1017.1mb 70f 69f
10:00 0.7ft 2s 9 11 mph 1016.9mb 70f 71f
9:00 0.7ft 3s 9 11 mph 1017.2mb 71f 71f
8:00 0.7ft 3s 11
mph
1017mb 71f 70f
7:00 0.7ft 6s 13
mph
1017.2mb 71f 70f
6:00 0.7ft 3s 11 13 mph 1017.7mb 71f 70f
5:00 0.7ft 3s 9 11 mph 1018.3mb 71f 69f
4:00 0.7ft 3s 4 7 mph 1018.8mb 71f 69f
3:00 1ft 3s 11 13 mph 1019.5mb 70f 68f
2:00 1ft 3s 11 13 mph 1019.7mb 70f 67f